createdAt,value
2022-11-10T00:00:59.075Z,100856.63
2022-11-10T00:03:28.176Z,100856.31
2022-11-10T00:05:56.424Z,100854.41
2022-11-10T00:08:25.299Z,100853.22
2022-11-10T00:10:58.575Z,100864.97
2022-11-10T00:13:27.267Z,100872.69
2022-11-10T00:16:12.208Z,100860.94
2022-11-10T00:18:39.823Z,100870.81
2022-11-10T00:21:09.054Z,100867.44
2022-11-10T00:23:37.853Z,100875.84
2022-11-10T00:26:05.655Z,100874.81
2022-11-10T00:28:33.657Z,100878.63
2022-11-10T00:31:06.081Z,100888.03
2022-11-10T00:33:35.376Z,100895.69
2022-11-10T00:36:02.922Z,100895.94
2022-11-10T00:38:30.492Z,100887.50
2022-11-10T00:41:00.802Z,100895.38
2022-11-10T00:43:29.325Z,100903.75
2022-11-10T00:45:57.197Z,100908.94
2022-11-10T00:48:24.676Z,100905.63
2022-11-10T00:50:52.311Z,100904.38
2022-11-10T00:53:20.536Z,100917.88
2022-11-10T00:55:48.636Z,100905.56
2022-11-10T00:58:17.680Z,100915.34
2022-11-10T01:00:45.172Z,100908.28
2022-11-10T01:03:14.679Z,100934.75
2022-11-10T01:05:42.228Z,100924.44
2022-11-10T01:08:09.979Z,100924.13
2022-11-10T01:10:37.463Z,100933.13
2022-11-10T01:13:04.909Z,100926.53
2022-11-10T01:15:33.690Z,100938.78
2022-11-10T01:18:01.169Z,100936.44
2022-11-10T01:20:28.635Z,100939.75
2022-11-10T01:22:56.123Z,100946.03
2022-11-10T01:25:23.596Z,100946.56
2022-11-10T01:27:51.636Z,100948.16
2022-11-10T01:30:19.619Z,100947.31
2022-11-10T01:32:48.413Z,100947.78
2022-11-10T01:35:16.023Z,100965.03
2022-11-10T01:37:43.523Z,100957.63
2022-11-10T01:40:12.326Z,100966.00
2022-11-10T01:42:45.207Z,100962.63
2022-11-10T01:45:45.109Z,100969.56
2022-11-10T01:48:16.923Z,100971.13
2022-11-10T01:50:44.680Z,100975.38
2022-11-10T01:53:15.619Z,100984.69
2022-11-10T01:55:44.475Z,100986.00
2022-11-10T01:58:14.291Z,100980.56
2022-11-10T02:00:41.808Z,100990.56
2022-11-10T02:03:13.327Z,100986.66
2022-11-10T02:05:43.588Z,100998.28
2022-11-10T02:08:12.710Z,100995.84
2022-11-10T02:10:40.157Z,100995.13
2022-11-10T02:13:07.692Z,100999.16
2022-11-10T02:15:35.150Z,101005.50
2022-11-10T02:18:02.600Z,101012.41
2022-11-10T02:20:30.070Z,101020.81
2022-11-10T02:22:58.868Z,101019.25
2022-11-10T02:25:30.675Z,101026.97
2022-11-10T02:27:58.118Z,101026.97
2022-11-10T02:30:27.943Z,101030.97
2022-11-10T02:32:55.438Z,101025.94
2022-11-10T02:35:22.880Z,101035.75
2022-11-10T02:37:50.347Z,101031.88
2022-11-10T02:40:19.240Z,101043.81
2022-11-10T02:42:46.687Z,101047.91
2022-11-10T02:45:14.303Z,101047.34
2022-11-10T02:47:41.755Z,101052.38
2022-11-10T02:50:09.906Z,101050.41
2022-11-10T02:55:20.097Z,101054.31
2022-11-10T02:57:47.543Z,101055.50
2022-11-10T03:00:15.111Z,101056.88
2022-11-10T03:02:42.530Z,101055.34
2022-11-10T03:05:10.096Z,101052.94
2022-11-10T03:07:38.025Z,101059.50
2022-11-10T03:10:06.230Z,101056.81
2022-11-10T03:12:35.000Z,101056.41
2022-11-10T03:15:02.449Z,101069.72
2022-11-10T03:17:29.904Z,101064.31
2022-11-10T03:19:57.326Z,101069.91
2022-11-10T03:22:24.776Z,101073.72
2022-11-10T03:24:52.205Z,101079.31
2022-11-10T03:27:19.636Z,101090.47
2022-11-10T03:29:48.417Z,101096.31
2022-11-10T03:32:15.936Z,101097.41
2022-11-10T03:34:43.433Z,101100.09
2022-11-10T03:37:10.903Z,101100.72
2022-11-10T03:39:38.335Z,101106.44
2022-11-10T03:42:05.830Z,101116.13
2022-11-10T03:44:33.267Z,101113.63
2022-11-10T03:47:03.780Z,101117.19
2022-11-10T03:49:31.298Z,101112.00
2022-11-10T03:51:58.780Z,101114.78
2022-11-10T03:54:26.239Z,101109.34
2022-11-10T03:56:53.684Z,101123.69
2022-11-10T03:59:21.136Z,101115.81
2022-11-10T04:01:48.629Z,101117.69
2022-11-10T04:04:31.380Z,101119.56
2022-11-10T04:07:16.321Z,101114.53
2022-11-10T04:09:43.828Z,101121.78
2022-11-10T04:12:28.883Z,101120.41
2022-11-10T04:15:13.936Z,101129.66
2022-11-10T04:17:41.407Z,101125.59
2022-11-10T04:20:11.301Z,101142.00
2022-11-10T04:22:56.526Z,101157.16
2022-11-10T04:25:23.983Z,101155.50
2022-11-10T04:27:51.456Z,101161.88
2022-11-10T04:30:19.151Z,101168.75
2022-11-10T04:32:46.596Z,101179.38
2022-11-10T04:35:15.437Z,101186.25
2022-11-10T04:37:42.952Z,101190.41
2022-11-10T04:40:11.489Z,101192.72
2022-11-10T04:42:40.563Z,101188.22
2022-11-10T04:45:08.873Z,101188.72
2022-11-10T04:47:36.327Z,101194.50
2022-11-10T04:50:03.785Z,101194.13
2022-11-10T04:52:32.571Z,101190.81
2022-11-10T04:54:59.996Z,101185.63
2022-11-10T04:57:27.440Z,101197.78
2022-11-10T04:59:54.875Z,101207.75
2022-11-10T05:02:22.337Z,101198.53
2022-11-10T05:04:49.786Z,101205.78
2022-11-10T05:07:17.227Z,101212.69
2022-11-10T05:09:46.013Z,101205.63
2022-11-10T05:12:17.344Z,101209.31
2022-11-10T05:14:47.270Z,101216.56
2022-11-10T05:17:14.824Z,101222.47
2022-11-10T05:19:42.533Z,101225.16
2022-11-10T05:22:10.020Z,101227.22
2022-11-10T05:24:37.456Z,101233.84
2022-11-10T05:27:06.319Z,101238.34
2022-11-10T05:29:33.764Z,101240.53
2022-11-10T05:32:01.218Z,101238.09
2022-11-10T05:34:28.764Z,101235.56
2022-11-10T05:36:56.213Z,101243.25
2022-11-10T05:39:23.635Z,101245.22
2022-11-10T05:41:51.095Z,101249.72
2022-11-10T05:44:19.863Z,101248.47
2022-11-10T05:46:48.258Z,101249.78
2022-11-10T05:49:15.704Z,101259.44
2022-11-10T05:51:43.255Z,101264.25
2022-11-10T05:54:10.864Z,101269.31
2022-11-10T05:56:38.320Z,101273.16
2022-11-10T05:59:05.885Z,101269.16
2022-11-10T06:01:34.677Z,101266.19
2022-11-10T06:04:03.039Z,101274.59
2022-11-10T06:06:30.541Z,101288.28
2022-11-10T06:08:59.251Z,101286.38
2022-11-10T06:11:26.748Z,101282.66
2022-11-10T06:13:54.186Z,101287.59
2022-11-10T06:16:21.672Z,101288.56
2022-11-10T06:18:50.465Z,101307.34
2022-11-10T06:21:17.937Z,101301.69
2022-11-10T06:23:45.392Z,101311.53
2022-11-10T06:26:12.856Z,101322.25
2022-11-10T06:28:40.350Z,101329.63
2022-11-10T06:31:07.822Z,101328.81
2022-11-10T06:33:35.311Z,101346.31
2022-11-10T06:36:04.425Z,101346.59
2022-11-10T06:38:31.867Z,101345.81
2022-11-10T06:40:59.311Z,101354.19
2022-11-10T06:43:26.770Z,101358.91
2022-11-10T06:45:54.251Z,101367.38
2022-11-10T06:48:21.711Z,101379.47
2022-11-10T06:50:49.188Z,101378.88
2022-11-10T06:53:21.709Z,101380.56
2022-11-10T06:55:51.823Z,101398.44
2022-11-10T06:58:19.607Z,101393.06
2022-11-10T07:00:47.550Z,101390.06
2022-11-10T07:03:16.035Z,101404.34
2022-11-10T07:05:43.672Z,101411.72
2022-11-10T07:08:13.539Z,101401.53
2022-11-10T07:10:42.787Z,101408.09
2022-11-10T07:13:11.059Z,101410.81
2022-11-10T07:15:38.566Z,101422.03
2022-11-10T07:18:06.167Z,101417.84
2022-11-10T07:20:33.625Z,101427.44
2022-11-10T07:23:03.473Z,101426.06
2022-11-10T07:25:32.273Z,101428.97
2022-11-10T07:28:03.043Z,101426.59
2022-11-10T07:30:31.838Z,101445.72
2022-11-10T07:33:02.972Z,101448.44
2022-11-10T07:35:31.092Z,101458.25
2022-11-10T07:37:59.525Z,101458.41
2022-11-10T07:40:27.110Z,101470.22
2022-11-10T07:42:54.648Z,101473.75
2022-11-10T07:45:23.587Z,101471.53
2022-11-10T07:47:51.317Z,101477.75
2022-11-10T07:50:19.247Z,101494.38
2022-11-10T07:52:46.703Z,101497.06
2022-11-10T07:55:14.211Z,101493.44
2022-11-10T07:57:41.679Z,101496.94
2022-11-10T08:00:12.623Z,101498.72
2022-11-10T08:02:41.420Z,101500.47
2022-11-10T08:05:09.754Z,101505.75
2022-11-10T08:07:37.304Z,101509.03
2022-11-10T08:10:05.318Z,101524.84
2022-11-10T08:12:33.843Z,101526.72
2022-11-10T08:15:01.635Z,101527.56
2022-11-10T08:17:29.074Z,101528.63
2022-11-10T08:19:57.910Z,101521.00
2022-11-10T08:22:25.355Z,101518.97
2022-11-10T08:24:52.804Z,101518.53
2022-11-10T08:27:20.260Z,101530.97
2022-11-10T08:29:47.728Z,101529.19
2022-11-10T08:32:15.166Z,101532.81
2022-11-10T08:34:42.600Z,101544.06
2022-11-10T08:37:12.462Z,101546.66
2022-11-10T08:39:40.883Z,101548.78
2022-11-10T08:42:08.327Z,101548.19
2022-11-10T08:44:35.767Z,101544.44
2022-11-10T08:47:03.326Z,101543.59
2022-11-10T08:49:30.767Z,101551.84
2022-11-10T08:51:58.207Z,101558.50
2022-11-10T08:54:26.985Z,101548.97
2022-11-10T08:56:54.788Z,101563.78
2022-11-10T08:59:22.250Z,101560.59
2022-11-10T09:01:49.692Z,101565.19
2022-11-10T09:04:17.175Z,101571.19
2022-11-10T09:06:44.727Z,101568.59
2022-11-10T09:09:12.268Z,101570.47
2022-11-10T09:11:41.395Z,101572.81
2022-11-10T09:14:08.830Z,101578.66
2022-11-10T09:16:36.277Z,101581.63
2022-11-10T09:19:03.739Z,101579.84
2022-11-10T09:21:31.256Z,101587.72
2022-11-10T09:23:58.713Z,101578.09
2022-11-10T09:26:26.179Z,101579.75
2022-11-10T09:28:55.008Z,101590.59
2022-11-10T09:31:22.460Z,101592.25
2022-11-10T09:33:50.104Z,101596.84
2022-11-10T09:36:17.578Z,101603.88
2022-11-10T09:38:45.012Z,101608.81
2022-11-10T09:41:13.939Z,101614.44
2022-11-10T09:43:44.407Z,101611.28
2022-11-10T09:46:17.337Z,101616.66
2022-11-10T09:48:48.279Z,101620.16
2022-11-10T09:51:19.526Z,101622.44
2022-11-10T09:53:51.156Z,101628.66
2022-11-10T09:56:21.448Z,101639.06
2022-11-10T09:58:49.025Z,101638.00
2022-11-10T10:01:30.060Z,101639.81
2022-11-10T10:04:06.583Z,101631.81
2022-11-10T10:06:57.035Z,101631.72
2022-11-10T10:09:28.690Z,101641.31
2022-11-10T10:12:04.162Z,101640.34
2022-11-10T10:14:45.693Z,101633.56
2022-11-10T10:17:23.629Z,101632.31
2022-11-10T10:19:59.259Z,101628.78
2022-11-10T10:22:37.459Z,101627.84
2022-11-10T10:25:12.593Z,101638.72
2022-11-10T10:27:41.890Z,101642.25
2022-11-10T10:30:14.184Z,101651.44
2022-11-10T10:32:43.167Z,101652.94
2022-11-10T10:35:13.968Z,101649.44
2022-11-10T10:37:45.066Z,101652.47
2022-11-10T10:40:16.109Z,101649.41
2022-11-10T10:42:43.564Z,101660.94
2022-11-10T10:45:18.911Z,101662.22
2022-11-10T10:47:49.381Z,101657.41
2022-11-10T10:50:23.575Z,101658.56
2022-11-10T10:53:09.752Z,101659.88
2022-11-10T10:55:38.064Z,101649.91
2022-11-10T10:58:07.074Z,101655.03
2022-11-10T11:00:43.949Z,101653.28
2022-11-10T11:03:15.144Z,101660.09
2022-11-10T11:05:42.602Z,101662.34
2022-11-10T11:08:18.044Z,101665.72
2022-11-10T11:10:46.569Z,101661.50
2022-11-10T11:13:15.606Z,101676.78
2022-11-10T11:15:43.083Z,101670.69
2022-11-10T11:18:16.175Z,101670.78
2022-11-10T11:20:49.653Z,101667.50
2022-11-10T11:23:33.051Z,101675.13
2022-11-10T11:26:04.202Z,101674.19
2022-11-10T11:28:40.348Z,101667.38
2022-11-10T11:31:14.994Z,101678.06
2022-11-10T11:33:48.039Z,101679.13
2022-11-10T11:36:25.564Z,101683.69
2022-11-10T11:38:55.799Z,101677.38
2022-11-10T11:41:33.837Z,101686.03
2022-11-10T11:44:21.530Z,101687.09
2022-11-10T11:46:54.161Z,101691.00
2022-11-10T11:49:56.255Z,101690.25
2022-11-10T11:52:29.460Z,101701.53
2022-11-10T11:55:07.454Z,101696.72
2022-11-10T11:57:44.946Z,101701.66
2022-11-10T12:00:15.312Z,101706.25
2022-11-10T12:03:00.463Z,101704.75
2022-11-10T12:05:37.513Z,101706.69
2022-11-10T12:08:15.411Z,101707.78
2022-11-10T12:10:50.279Z,101719.53
2022-11-10T12:13:31.094Z,101717.19
2022-11-10T12:16:02.745Z,101715.53
2022-11-10T12:18:33.535Z,101712.00
2022-11-10T12:21:15.223Z,101729.03
2022-11-10T12:23:54.100Z,101714.25
2022-11-10T12:26:28.386Z,101716.00
2022-11-10T12:29:03.418Z,101722.94
2022-11-10T12:31:32.864Z,101729.63
2022-11-10T12:34:03.139Z,101717.97
2022-11-10T12:36:32.595Z,101714.81
2022-11-10T12:39:02.875Z,101705.31
2022-11-10T12:41:36.165Z,101707.75
2022-11-10T12:44:13.143Z,101710.31
2022-11-10T12:46:41.930Z,101702.81
2022-11-10T12:49:18.810Z,101698.06
2022-11-10T12:51:53.195Z,101699.63
2022-11-10T12:54:21.756Z,101702.47
2022-11-10T12:56:51.660Z,101706.44
2022-11-10T12:59:31.055Z,101708.88
2022-11-10T13:02:03.308Z,101705.03
2022-11-10T13:04:31.912Z,101705.72
2022-11-10T13:07:02.778Z,101718.03
2022-11-10T13:09:32.198Z,101713.19
2022-11-10T13:12:19.996Z,101728.50
2022-11-10T13:14:47.835Z,101736.22
2022-11-10T13:17:54.395Z,101737.03
2022-11-10T13:20:49.607Z,101740.94
2022-11-10T13:23:26.767Z,101745.41
2022-11-10T13:25:59.185Z,101757.63
2022-11-10T13:28:58.546Z,101749.28
2022-11-10T13:31:56.630Z,101753.28
2022-11-10T13:34:34.740Z,101759.66
2022-11-10T13:37:03.329Z,101751.97
2022-11-10T13:39:33.585Z,101761.03
2022-11-10T13:42:03.898Z,101758.13
2022-11-10T13:44:33.510Z,101763.88
2022-11-10T13:47:34.787Z,101771.38
2022-11-10T13:50:14.533Z,101773.38
2022-11-10T13:52:51.517Z,101770.91
2022-11-10T13:55:30.163Z,101777.97
2022-11-10T13:58:00.511Z,101788.75
2022-11-10T14:00:30.340Z,101783.69
2022-11-10T14:03:00.782Z,101776.09
2022-11-10T14:06:05.424Z,101790.06
2022-11-10T14:08:49.660Z,101791.25
2022-11-10T14:11:22.357Z,101796.31
2022-11-10T14:13:54.228Z,101802.06
2022-11-10T14:16:25.327Z,101805.59
2022-11-10T14:18:57.984Z,101808.75
2022-11-10T14:21:33.407Z,101812.75
2022-11-10T14:24:08.279Z,101806.50
2022-11-10T14:26:40.344Z,101810.38
2022-11-10T14:29:39.861Z,101820.97
2022-11-10T14:32:15.067Z,101822.28
2022-11-10T14:34:47.539Z,101814.50
2022-11-10T14:37:18.796Z,101811.22
2022-11-10T14:39:46.408Z,101809.94
2022-11-10T14:42:20.766Z,101811.00
2022-11-10T14:44:48.563Z,101804.66
2022-11-10T14:47:27.599Z,101815.00
2022-11-10T14:50:18.699Z,101810.88
2022-11-10T14:52:47.956Z,101802.56
2022-11-10T14:55:18.183Z,101804.97
2022-11-10T14:57:55.734Z,101795.25
2022-11-10T15:00:26.144Z,101787.97
2022-11-10T15:02:55.459Z,101799.25
2022-11-10T15:05:23.303Z,101782.19
2022-11-10T15:07:54.084Z,101788.44
2022-11-10T15:10:23.997Z,101792.66
2022-11-10T15:13:04.509Z,101797.16
2022-11-10T15:15:32.006Z,101801.00
2022-11-10T15:17:59.479Z,101805.22
2022-11-10T15:20:29.317Z,101804.88
2022-11-10T15:22:58.877Z,101812.75
2022-11-10T15:25:33.414Z,101818.50
2022-11-10T15:28:05.186Z,101825.53
2022-11-10T15:30:32.791Z,101823.44
2022-11-10T15:33:02.481Z,101835.44
2022-11-10T15:35:32.027Z,101830.28
2022-11-10T15:38:01.491Z,101828.25
2022-11-10T15:40:30.958Z,101823.22
2022-11-10T15:43:14.932Z,101832.84
2022-11-10T15:45:43.750Z,101837.53
2022-11-10T15:48:13.579Z,101842.47
2022-11-10T15:50:42.013Z,101843.19
2022-11-10T15:53:14.300Z,101841.06
2022-11-10T15:55:42.046Z,101840.72
2022-11-10T15:58:18.269Z,101855.16
2022-11-10T16:00:45.803Z,101860.44
2022-11-10T16:03:15.056Z,101850.13
2022-11-10T16:05:42.543Z,101863.50
2022-11-10T16:08:13.487Z,101861.06
2022-11-10T16:10:41.812Z,101872.00
2022-11-10T16:13:11.147Z,101864.69
2022-11-10T16:15:40.535Z,101865.28
2022-11-10T16:18:12.226Z,101868.22
2022-11-10T16:20:39.721Z,101861.06
2022-11-10T16:23:07.370Z,101858.81
2022-11-10T16:25:35.016Z,101874.22
2022-11-10T16:28:04.235Z,101865.97
2022-11-10T16:30:32.082Z,101888.91
2022-11-10T16:33:04.268Z,101892.78
2022-11-10T16:35:32.908Z,101877.84
2022-11-10T16:38:00.397Z,101878.59
2022-11-10T16:40:27.848Z,101873.19
2022-11-10T16:42:55.375Z,101875.50
2022-11-10T16:45:24.658Z,101878.44
2022-11-10T16:47:53.392Z,101893.84
2022-11-10T16:50:32.341Z,101891.38
2022-11-10T16:53:02.109Z,101889.41
2022-11-10T16:55:29.596Z,101875.88
2022-11-10T16:57:57.075Z,101875.50
2022-11-10T17:00:24.804Z,101875.72
2022-11-10T17:02:59.842Z,101878.69
2022-11-10T17:05:27.363Z,101887.50
2022-11-10T17:07:58.431Z,101895.03
2022-11-10T17:10:25.975Z,101904.78
2022-11-10T17:12:53.456Z,101911.72
2022-11-10T17:15:20.924Z,101903.38
2022-11-10T17:17:50.695Z,101914.53
2022-11-10T17:20:20.491Z,101909.13
2022-11-10T17:22:49.007Z,101909.25
2022-11-10T17:25:25.830Z,101913.84
2022-11-10T17:27:53.565Z,101916.19
2022-11-10T17:30:21.430Z,101912.44
2022-11-10T17:33:06.033Z,101916.78
2022-11-10T17:35:37.711Z,101916.66
2022-11-10T17:38:12.225Z,101919.59
2022-11-10T17:40:41.935Z,101924.53
2022-11-10T17:43:11.582Z,101920.06
2022-11-10T17:45:39.864Z,101922.66
2022-11-10T17:48:07.818Z,101923.13
2022-11-10T17:50:37.019Z,101921.34
2022-11-10T17:53:16.598Z,101921.47
2022-11-10T17:55:45.421Z,101928.41
2022-11-10T17:58:13.109Z,101926.75
2022-11-10T18:00:40.575Z,101927.38
2022-11-10T18:03:08.595Z,101935.81
2022-11-10T18:05:36.513Z,101935.59
2022-11-10T18:08:04.063Z,101935.47
2022-11-10T18:10:33.847Z,101923.38
2022-11-10T18:13:02.732Z,101923.38
2022-11-10T18:15:30.196Z,101922.06
2022-11-10T18:18:00.854Z,101922.06
2022-11-10T18:20:28.680Z,101928.16
2022-11-10T18:22:56.102Z,101924.16
2022-11-10T18:25:23.559Z,101926.41
2022-11-10T18:27:51.015Z,101936.78
2022-11-10T18:30:19.902Z,101932.28
2022-11-10T18:32:47.360Z,101923.25
2022-11-10T18:35:14.869Z,101935.38
2022-11-10T18:37:42.291Z,101939.94
2022-11-10T18:40:11.175Z,101929.97
2022-11-10T18:42:38.624Z,101936.63
2022-11-10T18:45:07.173Z,101934.19
2022-11-10T18:47:35.997Z,101939.09
2022-11-10T18:50:03.454Z,101934.75
2022-11-10T18:52:30.894Z,101937.13
2022-11-10T18:54:58.323Z,101937.34
2022-11-10T18:57:25.807Z,101938.06
2022-11-10T18:59:53.640Z,101944.50
2022-11-10T19:02:21.112Z,101937.56
2022-11-10T19:04:53.506Z,101948.88
2022-11-10T19:07:21.311Z,101946.63
2022-11-10T19:09:48.807Z,101940.50
2022-11-10T19:12:16.314Z,101936.03
2022-11-10T19:14:43.833Z,101938.41
2022-11-10T19:17:11.423Z,101944.88
2022-11-10T19:19:38.871Z,101946.63
2022-11-10T19:22:07.698Z,101943.22
2022-11-10T19:24:53.818Z,101950.03
2022-11-10T19:27:23.564Z,101954.28
2022-11-10T19:29:51.030Z,101957.34
2022-11-10T19:32:23.648Z,101961.22
2022-11-10T19:34:52.520Z,101958.72
2022-11-10T19:37:21.467Z,101948.63
2022-11-10T19:39:48.945Z,101956.16
2022-11-10T19:42:16.402Z,101961.91
2022-11-10T19:44:43.891Z,101963.22
2022-11-10T19:47:11.663Z,101951.44
2022-11-10T19:49:39.102Z,101956.16
2022-11-10T19:52:06.534Z,101958.84
2022-11-10T19:54:35.387Z,101964.72
2022-11-10T19:57:02.992Z,101959.94
2022-11-10T19:59:30.450Z,101966.63
2022-11-10T20:01:59.228Z,101967.31
2022-11-10T20:04:27.012Z,101958.63
2022-11-10T20:07:14.823Z,101963.53
2022-11-10T20:09:43.628Z,101965.44
2022-11-10T20:12:11.206Z,101977.69
2022-11-10T20:14:38.695Z,101969.31
2022-11-10T20:17:06.183Z,101972.06
2022-11-10T20:19:40.880Z,101970.97
2022-11-10T20:22:08.717Z,101982.25
2022-11-10T20:24:36.691Z,101989.28
2022-11-10T20:27:05.577Z,101983.31
2022-11-10T20:29:33.048Z,101977.78
2022-11-10T20:32:00.530Z,101988.13
2022-11-10T20:34:27.983Z,101982.13
2022-11-10T20:36:56.033Z,101991.06
2022-11-10T20:39:23.453Z,101988.38
2022-11-10T20:41:52.411Z,102000.81
2022-11-10T20:44:21.242Z,102005.97
2022-11-10T20:46:54.472Z,101999.88
2022-11-10T20:49:22.688Z,102007.19
2022-11-10T20:51:50.128Z,102016.09
2022-11-10T20:54:17.604Z,102023.28
2022-11-10T20:56:45.114Z,102024.94
2022-11-10T20:59:12.640Z,102027.03
2022-11-10T21:01:41.429Z,102017.50
2022-11-10T21:04:10.059Z,102020.66
2022-11-10T21:06:37.606Z,102029.59
2022-11-10T21:09:05.342Z,102025.22
2022-11-10T21:11:52.818Z,102025.72
2022-11-10T21:14:20.287Z,102032.66
2022-11-10T21:16:49.115Z,102041.56
2022-11-10T21:19:16.589Z,102035.72
2022-11-10T21:21:44.224Z,102048.75
2022-11-10T21:24:11.970Z,102050.75
2022-11-10T21:26:41.046Z,102049.31
2022-11-10T21:29:08.625Z,102040.91
2022-11-10T21:31:36.106Z,102044.16
2022-11-10T21:34:04.989Z,102052.72
2022-11-10T21:36:32.572Z,102047.78
2022-11-10T21:39:00.112Z,102055.34
2022-11-10T21:41:27.822Z,102062.88
2022-11-10T21:43:55.281Z,102060.72
2022-11-10T21:46:22.856Z,102064.34
2022-11-10T21:48:50.830Z,102060.44
2022-11-10T21:51:21.007Z,102064.78
2022-11-10T21:53:48.486Z,102064.56
2022-11-10T21:56:15.955Z,102056.78
2022-11-10T21:58:43.434Z,102059.50
2022-11-10T22:01:12.769Z,102067.00
2022-11-10T22:03:40.759Z,102060.06
2022-11-10T22:06:10.020Z,102059.47
2022-11-10T22:08:42.515Z,102059.81
2022-11-10T22:11:30.686Z,102054.41
2022-11-10T22:14:15.886Z,102063.50
2022-11-10T22:17:03.813Z,102065.19
2022-11-10T22:19:31.699Z,102080.88
2022-11-10T22:22:03.428Z,102091.19
2022-11-10T22:24:33.641Z,102088.91
2022-11-10T22:27:03.007Z,102095.44
2022-11-10T22:29:32.839Z,102085.56
2022-11-10T22:32:00.652Z,102083.66
2022-11-10T22:34:28.400Z,102091.91
2022-11-10T22:36:55.866Z,102098.50
2022-11-10T22:39:43.461Z,102093.94
2022-11-10T22:42:30.990Z,102100.69
2022-11-10T22:44:58.535Z,102098.72
2022-11-10T22:47:46.156Z,102092.88
2022-11-10T22:50:13.610Z,102088.81
2022-11-10T22:52:41.066Z,102088.47
2022-11-10T22:55:08.874Z,102092.66
2022-11-10T22:57:37.697Z,102089.72
2022-11-10T23:00:06.031Z,102094.50
2022-11-10T23:02:33.483Z,102096.25
2022-11-10T23:05:00.928Z,102098.03
2022-11-10T23:07:29.458Z,102102.84
2022-11-10T23:09:56.901Z,102096.34
2022-11-10T23:12:24.355Z,102088.16
2022-11-10T23:14:53.128Z,102094.06
2022-11-10T23:17:20.606Z,102094.50
2022-11-10T23:19:48.043Z,102094.25
2022-11-10T23:22:15.500Z,102096.03
2022-11-10T23:24:42.939Z,102105.91
2022-11-10T23:27:10.374Z,102109.00
2022-11-10T23:29:37.800Z,102109.00
2022-11-10T23:32:06.769Z,102098.13
2022-11-10T23:34:34.220Z,102095.44
2022-11-10T23:37:01.663Z,102097.16
2022-11-10T23:39:29.117Z,102109.75
2022-11-10T23:41:56.543Z,102109.47
2022-11-10T23:44:24.008Z,102112.22
2022-11-10T23:46:51.446Z,102103.84
2022-11-10T23:49:20.227Z,102131.28
2022-11-10T23:51:47.720Z,102122.88
2022-11-10T23:54:15.207Z,102128.78
2022-11-10T23:56:42.667Z,102126.91
2022-11-10T23:59:10.111Z,102131.97
